Kruunupyy, Kokkola-Pietarsaari Airport (EFKK)

NameKokkola-Pietarsaari Airport
CityKruunupyy
CountryFinland
ICAOEFKK
IATAKOK
Altitude26 m
CoordinatesGoogle Map
Live Air TrafficLiveATC.net
METAREFKK 251720Z AUTO 29004KT 250V330 CAVOK 04/M05 Q0999
2020-04-25 17:20:00 Wind: West (290°) 2.06 m/s - Visibility: > 10000 m - Weather: CAVOK - Temperature: 4 °C - Dew point: -5 °C - Humidity: 52.3% - Pressure: 0999 hPa
Statistics

The table below shows the detailed information of all flights to/from Kruunupyy, Kokkola-Pietarsaari Airport (EFKK).